createdAt,value
2018-05-09T00:00:29.492Z,6.20
2018-05-09T00:02:57.658Z,5.62
2018-05-09T00:05:25.824Z,5.60
2018-05-09T00:07:54.003Z,5.57
2018-05-09T00:10:22.163Z,4.03
2018-05-09T00:12:50.358Z,4.72
2018-05-09T00:15:18.517Z,4.45
2018-05-09T00:17:46.677Z,7.47
2018-05-09T00:20:14.863Z,4.72
2018-05-09T00:22:43.009Z,6.45
2018-05-09T00:25:11.201Z,7.28
2018-05-09T00:27:39.378Z,3.85
2018-05-09T00:30:07.532Z,4.45
2018-05-09T00:32:35.717Z,4.82
2018-05-09T00:35:03.903Z,4.00
2018-05-09T00:37:32.084Z,6.60
2018-05-09T00:40:00.268Z,5.40
2018-05-09T00:42:28.430Z,5.28
2018-05-09T00:44:56.606Z,4.87
2018-05-09T00:47:24.800Z,5.12
2018-05-09T00:49:52.979Z,5.47
2018-05-09T00:52:21.171Z,5.28
2018-05-09T00:54:49.358Z,4.00
2018-05-09T00:57:17.561Z,4.07
2018-05-09T00:59:45.713Z,6.07
2018-05-09T01:02:13.885Z,4.68
2018-05-09T01:04:42.068Z,6.20
2018-05-09T01:07:10.246Z,5.60
2018-05-09T01:09:38.413Z,5.65
2018-05-09T01:12:06.592Z,4.87
2018-05-09T01:14:34.770Z,5.05
2018-05-09T01:17:02.965Z,5.60
2018-05-09T01:19:31.160Z,5.20
2018-05-09T01:21:59.339Z,6.03
2018-05-09T01:24:27.500Z,6.20
2018-05-09T01:26:55.654Z,5.95
2018-05-09T01:29:23.839Z,5.72
2018-05-09T01:31:52.013Z,8.13
2018-05-09T01:34:20.196Z,8.10
2018-05-09T01:36:48.387Z,5.60
2018-05-09T01:39:16.559Z,7.53
2018-05-09T01:41:44.728Z,7.00
2018-05-09T01:44:12.906Z,7.20
2018-05-09T01:46:41.061Z,6.40
2018-05-09T01:49:09.234Z,5.40
2018-05-09T01:51:37.441Z,5.80
2018-05-09T01:54:05.623Z,7.55
2018-05-09T01:56:33.800Z,7.07
2018-05-09T01:59:01.968Z,6.07
2018-05-09T02:01:30.153Z,5.85
2018-05-09T02:03:58.328Z,6.07
2018-05-09T02:06:26.487Z,5.90
2018-05-09T02:08:54.648Z,6.47
2018-05-09T02:11:22.821Z,6.05
2018-05-09T02:13:51.019Z,6.57
2018-05-09T02:16:19.180Z,7.03
2018-05-09T02:18:47.386Z,6.57
2018-05-09T02:21:15.623Z,7.03
2018-05-09T02:23:43.782Z,7.65
2018-05-09T02:26:11.904Z,6.20
2018-05-09T02:28:40.078Z,6.35
2018-05-09T02:31:08.333Z,7.25
2018-05-09T02:33:36.415Z,6.65
2018-05-09T02:36:04.657Z,6.25
2018-05-09T02:38:32.813Z,6.50
2018-05-09T02:41:01.003Z,6.20
2018-05-09T02:43:29.170Z,7.68
2018-05-09T02:45:57.352Z,6.80
2018-05-09T02:48:25.516Z,7.03
2018-05-09T02:50:53.711Z,6.85
2018-05-09T02:53:21.911Z,6.95
2018-05-09T02:55:50.063Z,6.43
2018-05-09T02:58:18.237Z,6.77
2018-05-09T03:00:46.405Z,5.68
2018-05-09T03:03:14.596Z,7.62
2018-05-09T03:05:42.775Z,6.22
2018-05-09T03:08:10.931Z,7.60
2018-05-09T03:10:39.089Z,6.28
2018-05-09T03:13:07.306Z,8.70
2018-05-09T03:15:35.448Z,6.62
2018-05-09T03:18:03.601Z,6.60
2018-05-09T03:20:31.781Z,6.40
2018-05-09T03:22:59.964Z,6.28
2018-05-09T03:25:28.148Z,7.10
2018-05-09T03:27:56.300Z,7.70
2018-05-09T03:30:24.489Z,6.62
2018-05-09T03:32:52.662Z,9.38
2018-05-09T03:35:20.848Z,22.02
2018-05-09T03:37:48.998Z,85.10
2018-05-09T03:40:17.171Z,45.55
2018-05-09T03:42:45.358Z,69.40
2018-05-09T03:45:13.556Z,85.50
2018-05-09T03:47:41.719Z,105.43
2018-05-09T03:50:09.893Z,112.53
2018-05-09T03:52:38.059Z,105.60
2018-05-09T03:55:06.241Z,104.65
2018-05-09T03:57:34.427Z,90.38
2018-05-09T04:00:04.628Z,81.93
2018-05-09T04:03:09.563Z,83.22
2018-05-09T04:06:14.118Z,63.72
2018-05-09T04:09:35.936Z,51.55
2018-05-09T04:12:04.039Z,34.05
2018-05-09T04:14:32.211Z,22.48
2018-05-09T04:17:00.431Z,24.90
2018-05-09T04:19:28.616Z,27.13
2018-05-09T04:21:56.766Z,28.57
2018-05-09T04:24:25.009Z,27.55
2018-05-09T04:26:53.210Z,23.27
2018-05-09T04:29:21.412Z,13.88
2018-05-09T04:31:49.596Z,21.12
2018-05-09T04:34:17.773Z,18.33
2018-05-09T04:36:45.938Z,14.75
2018-05-09T04:39:14.157Z,11.35
2018-05-09T04:41:42.321Z,17.10
2018-05-09T04:44:10.466Z,14.98
2018-05-09T04:46:38.678Z,15.25
2018-05-09T04:49:08.430Z,16.45
2018-05-09T04:51:36.609Z,11.35
2018-05-09T04:54:04.799Z,12.17
2018-05-09T04:56:32.959Z,11.12
2018-05-09T04:59:01.158Z,11.00
2018-05-09T05:01:29.357Z,12.57
2018-05-09T05:03:57.531Z,13.45
2018-05-09T05:06:25.724Z,11.90
2018-05-09T05:08:53.935Z,11.85
2018-05-09T05:11:22.092Z,13.33
2018-05-09T05:13:50.287Z,11.50
2018-05-09T05:16:18.468Z,13.95
2018-05-09T05:18:46.675Z,14.87
2018-05-09T05:21:14.805Z,11.30
2018-05-09T05:23:42.979Z,12.95
2018-05-09T05:26:11.147Z,14.85
2018-05-09T05:28:39.371Z,15.02
2018-05-09T05:31:07.547Z,18.60
2018-05-09T05:33:35.735Z,15.60
2018-05-09T05:36:03.934Z,12.35
2018-05-09T05:38:32.152Z,12.18
2018-05-09T05:41:00.334Z,13.35
2018-05-09T05:43:28.513Z,11.75
2018-05-09T05:45:56.688Z,11.52
2018-05-09T05:48:28.287Z,15.32
2018-05-09T05:50:56.478Z,10.68
2018-05-09T05:53:24.675Z,12.68
2018-05-09T05:55:52.874Z,9.80
2018-05-09T05:58:21.049Z,11.70
2018-05-09T06:00:49.223Z,10.90
2018-05-09T06:03:17.583Z,12.57
2018-05-09T06:05:45.747Z,11.23
2018-05-09T06:08:17.291Z,12.70
2018-05-09T06:10:45.405Z,10.57
2018-05-09T06:13:13.607Z,9.02
2018-05-09T06:15:41.767Z,11.75
2018-05-09T06:18:09.977Z,10.60
2018-05-09T06:20:38.167Z,11.02
2018-05-09T06:23:06.375Z,9.40
2018-05-09T06:25:34.567Z,11.40
2018-05-09T06:28:02.722Z,9.25
2018-05-09T06:30:30.888Z,9.40
2018-05-09T06:32:59.075Z,9.15
2018-05-09T06:35:27.254Z,9.45
2018-05-09T06:37:55.400Z,8.48
2018-05-09T06:40:23.589Z,8.32
2018-05-09T06:42:51.763Z,8.95
2018-05-09T06:45:19.956Z,10.82
2018-05-09T06:47:48.129Z,10.10
2018-05-09T06:50:16.308Z,7.90
2018-05-09T06:52:44.507Z,8.27
2018-05-09T06:55:12.703Z,9.57
2018-05-09T06:57:41.350Z,9.10
2018-05-09T07:00:09.502Z,9.85
2018-05-09T07:02:37.700Z,8.00
2018-05-09T07:05:05.875Z,8.70
2018-05-09T07:07:34.103Z,8.07
2018-05-09T07:10:02.282Z,8.20
2018-05-09T07:12:30.522Z,11.35
2018-05-09T07:14:58.669Z,10.00
2018-05-09T07:17:26.862Z,10.45
2018-05-09T07:19:55.022Z,9.27
2018-05-09T07:22:23.331Z,8.90
2018-05-09T07:24:51.402Z,8.10
2018-05-09T07:27:19.600Z,11.45
2018-05-09T07:29:47.767Z,9.07
2018-05-09T07:32:15.945Z,8.77
2018-05-09T07:34:44.215Z,9.80
2018-05-09T07:37:12.347Z,10.65
2018-05-09T07:39:40.540Z,10.83
2018-05-09T07:42:08.721Z,7.45
2018-05-09T07:44:36.907Z,7.95
2018-05-09T07:47:05.085Z,9.02
2018-05-09T07:49:33.296Z,8.52
2018-05-09T07:52:01.495Z,7.68
2018-05-09T07:54:29.866Z,8.87
2018-05-09T07:56:58.036Z,7.93
2018-05-09T07:59:26.240Z,6.53
2018-05-09T08:01:54.453Z,7.18
2018-05-09T08:04:22.623Z,8.38
2018-05-09T08:06:50.838Z,7.43
2018-05-09T08:09:19.051Z,6.20
2018-05-09T08:11:47.228Z,7.75
2018-05-09T08:14:15.435Z,6.95
2018-05-09T08:16:43.612Z,8.00
2018-05-09T08:19:11.779Z,7.60
2018-05-09T08:21:39.972Z,8.23
2018-05-09T08:24:08.151Z,7.28
2018-05-09T08:26:36.342Z,7.75
2018-05-09T08:29:04.503Z,8.80
2018-05-09T08:31:32.696Z,7.83
2018-05-09T08:34:00.944Z,7.27
2018-05-09T08:36:29.165Z,8.85
2018-05-09T08:38:57.365Z,8.35
2018-05-09T08:41:25.493Z,8.45
2018-05-09T08:43:53.782Z,8.17
2018-05-09T08:46:21.920Z,8.48
2018-05-09T08:48:50.133Z,8.88
2018-05-09T08:51:18.339Z,7.35
2018-05-09T08:53:46.547Z,8.60
2018-05-09T08:56:14.761Z,8.05
2018-05-09T08:58:42.948Z,8.82
2018-05-09T09:01:11.143Z,9.02
2018-05-09T09:03:39.320Z,8.20
2018-05-09T09:06:07.527Z,9.82
2018-05-09T09:08:35.727Z,10.73
2018-05-09T09:11:03.912Z,14.55
2018-05-09T09:13:32.100Z,12.82
2018-05-09T09:16:00.332Z,11.52
2018-05-09T09:18:28.549Z,9.25
2018-05-09T09:20:56.759Z,14.98
2018-05-09T09:23:24.918Z,9.75
2018-05-09T09:25:53.111Z,9.60
2018-05-09T09:28:21.283Z,10.02
2018-05-09T09:30:49.428Z,9.53
2018-05-09T09:33:17.853Z,7.28
2018-05-09T09:35:46.045Z,9.73
2018-05-09T09:38:14.246Z,8.48
2018-05-09T09:40:42.411Z,7.50
2018-05-09T09:43:10.607Z,9.18
2018-05-09T09:45:38.876Z,7.05
2018-05-09T09:48:07.012Z,7.70
2018-05-09T09:50:35.287Z,8.85
2018-05-09T09:53:03.361Z,8.10
2018-05-09T09:55:31.556Z,9.10
2018-05-09T09:57:59.876Z,5.85
2018-05-09T10:00:28.091Z,9.27
2018-05-09T10:02:56.286Z,8.68
2018-05-09T10:05:24.449Z,8.82
2018-05-09T10:07:52.659Z,10.23
2018-05-09T10:10:20.859Z,6.07
2018-05-09T10:12:49.033Z,5.12
2018-05-09T10:15:17.242Z,6.47
2018-05-09T10:17:45.419Z,7.45
2018-05-09T10:20:13.717Z,4.18
2018-05-09T10:22:41.876Z,4.57
2018-05-09T10:25:10.071Z,4.25
2018-05-09T10:27:38.276Z,5.93
2018-05-09T10:30:06.482Z,6.37
2018-05-09T10:32:34.694Z,5.50
2018-05-09T10:35:02.863Z,7.07
2018-05-09T10:37:31.017Z,3.97
2018-05-09T10:39:59.276Z,5.10
2018-05-09T10:42:27.464Z,4.03
2018-05-09T10:44:55.651Z,5.10
2018-05-09T10:47:27.255Z,3.50
2018-05-09T10:49:55.476Z,3.47
2018-05-09T10:52:23.626Z,4.95
2018-05-09T10:54:51.816Z,6.22
2018-05-09T10:57:20.078Z,5.22
2018-05-09T10:59:48.204Z,5.43
2018-05-09T11:02:16.340Z,7.17
2018-05-09T11:04:44.524Z,4.80
2018-05-09T11:07:12.713Z,5.72
2018-05-09T11:09:40.859Z,6.03
2018-05-09T11:12:09.045Z,6.15
2018-05-09T11:14:37.206Z,7.35
2018-05-09T11:17:05.369Z,5.65
2018-05-09T11:19:33.567Z,6.93
2018-05-09T11:22:01.732Z,6.47
2018-05-09T11:24:30.069Z,5.55
2018-05-09T11:26:58.124Z,5.72
2018-05-09T11:29:26.360Z,5.65
2018-05-09T11:31:54.532Z,8.02
2018-05-09T11:34:22.686Z,6.30
2018-05-09T11:36:50.892Z,4.10
2018-05-09T11:39:19.082Z,5.12
2018-05-09T11:41:47.241Z,6.00
2018-05-09T11:44:15.420Z,6.45
2018-05-09T11:46:43.643Z,3.53
2018-05-09T11:49:11.795Z,5.43
2018-05-09T11:51:40.008Z,3.97
2018-05-09T11:54:08.202Z,5.25
2018-05-09T11:56:36.419Z,5.12
2018-05-09T11:59:04.595Z,5.45
2018-05-09T12:01:32.812Z,5.10
2018-05-09T12:04:00.996Z,6.03
2018-05-09T12:06:29.185Z,6.10
2018-05-09T12:08:57.381Z,5.30
2018-05-09T12:11:25.581Z,5.22
2018-05-09T12:13:53.893Z,8.40
2018-05-09T12:16:22.067Z,7.15
2018-05-09T12:18:50.324Z,9.00
2018-05-09T12:21:18.428Z,6.05
2018-05-09T12:23:46.608Z,6.75
2018-05-09T12:26:14.847Z,6.18
2018-05-09T12:28:43.044Z,6.95
2018-05-09T12:31:11.217Z,7.18
2018-05-09T12:33:39.419Z,5.53
2018-05-09T12:36:07.695Z,6.75
2018-05-09T12:38:35.871Z,5.12
2018-05-09T12:41:04.055Z,4.70
2018-05-09T12:43:32.216Z,6.30
2018-05-09T12:46:00.404Z,6.90
2018-05-09T12:48:28.628Z,4.70
2018-05-09T12:50:56.815Z,5.95
2018-05-09T12:53:25.083Z,5.57
2018-05-09T12:55:53.228Z,4.95
2018-05-09T12:58:21.443Z,6.87
2018-05-09T13:00:52.431Z,6.12
2018-05-09T13:03:20.677Z,7.20
2018-05-09T13:05:48.816Z,6.75
2018-05-09T13:08:17.009Z,4.50
2018-05-09T13:10:45.176Z,6.75
2018-05-09T13:13:13.447Z,5.28
2018-05-09T13:15:41.527Z,4.53
2018-05-09T13:18:09.704Z,5.07
2018-05-09T13:20:37.872Z,3.60
2018-05-09T13:23:06.080Z,5.40
2018-05-09T13:25:34.264Z,4.97
2018-05-09T13:28:02.472Z,4.62
2018-05-09T13:30:30.646Z,5.50
2018-05-09T13:32:58.901Z,5.50
2018-05-09T13:35:27.116Z,5.37
2018-05-09T13:37:55.325Z,5.22
2018-05-09T13:40:23.491Z,7.35
2018-05-09T13:42:51.664Z,6.28
2018-05-09T13:45:19.981Z,5.62
2018-05-09T13:47:48.174Z,6.57
2018-05-09T13:50:16.355Z,5.72
2018-05-09T13:52:44.553Z,7.18
2018-05-09T13:55:12.737Z,4.85
2018-05-09T13:57:41.002Z,7.00
2018-05-09T14:00:09.235Z,5.25
2018-05-09T14:02:37.426Z,6.50
2018-05-09T14:05:05.682Z,7.55
2018-05-09T14:07:33.814Z,6.53
2018-05-09T14:10:02.092Z,4.95
2018-05-09T14:12:30.152Z,6.57
2018-05-09T14:14:58.352Z,7.75
2018-05-09T14:17:26.501Z,7.00
2018-05-09T14:19:54.720Z,5.50
2018-05-09T14:22:22.919Z,7.35
2018-05-09T14:24:51.087Z,6.00
2018-05-09T14:27:19.426Z,6.15
2018-05-09T14:29:47.492Z,4.97
2018-05-09T14:32:15.673Z,4.25
2018-05-09T14:34:43.883Z,4.65
2018-05-09T14:37:12.103Z,7.55
2018-05-09T14:39:40.194Z,4.97
2018-05-09T14:42:08.394Z,5.73
2018-05-09T14:44:36.553Z,4.93
2018-05-09T14:47:04.757Z,5.27
2018-05-09T14:49:32.955Z,5.60
2018-05-09T14:52:01.130Z,6.30
2018-05-09T14:54:29.319Z,6.57
2018-05-09T14:56:57.516Z,6.97
2018-05-09T14:59:25.788Z,5.67
2018-05-09T15:01:53.954Z,6.10
2018-05-09T15:04:22.185Z,5.50
2018-05-09T15:06:50.297Z,5.17
2018-05-09T15:09:18.474Z,7.30
2018-05-09T15:11:46.657Z,6.60
2018-05-09T15:14:14.876Z,5.53
2018-05-09T15:16:43.095Z,8.17
2018-05-09T15:19:11.241Z,5.67
2018-05-09T15:21:39.413Z,5.47
2018-05-09T15:24:07.656Z,19.17
2018-05-09T15:26:35.829Z,18.43
2018-05-09T15:29:04.002Z,22.70
2018-05-09T15:31:32.176Z,24.40
2018-05-09T15:34:00.347Z,21.37
2018-05-09T15:36:28.533Z,24.67
2018-05-09T15:38:56.868Z,20.93
2018-05-09T15:41:25.004Z,19.67
2018-05-09T15:43:53.107Z,18.97
2018-05-09T15:46:21.380Z,20.07
2018-05-09T15:48:49.550Z,21.23
2018-05-09T15:51:17.719Z,19.03
2018-05-09T15:53:45.900Z,18.43
2018-05-09T15:56:14.103Z,20.60
2018-05-09T15:58:42.260Z,24.43
2018-05-09T16:01:10.446Z,21.13
2018-05-09T16:03:38.617Z,20.70
2018-05-09T16:06:06.885Z,22.90
2018-05-09T16:08:35.066Z,21.05
2018-05-09T16:11:03.250Z,21.35
2018-05-09T16:13:31.415Z,24.98
2018-05-09T16:15:59.604Z,30.85
2018-05-09T16:18:27.797Z,30.58
2018-05-09T16:20:55.959Z,29.25
2018-05-09T16:23:24.139Z,30.77
2018-05-09T16:25:52.304Z,33.35
2018-05-09T16:28:20.504Z,34.13
2018-05-09T16:30:48.712Z,28.58
2018-05-09T16:33:16.884Z,27.60
2018-05-09T16:35:45.078Z,33.75
2018-05-09T16:38:13.259Z,32.65
2018-05-09T16:40:41.441Z,34.15
2018-05-09T16:43:09.606Z,35.15
2018-05-09T16:45:37.858Z,32.20
2018-05-09T16:48:06.064Z,36.20
2018-05-09T16:50:34.147Z,35.53
2018-05-09T16:53:02.498Z,35.80
2018-05-09T16:55:30.603Z,33.38
2018-05-09T16:57:58.838Z,36.72
2018-05-09T17:00:27.039Z,33.13
2018-05-09T17:02:55.249Z,31.50
2018-05-09T17:05:23.465Z,29.67
2018-05-09T17:07:51.661Z,33.38
2018-05-09T17:10:19.906Z,36.95
2018-05-09T17:12:48.103Z,38.30
2018-05-09T17:15:16.279Z,39.40
2018-05-09T17:17:44.453Z,42.37
2018-05-09T17:20:12.679Z,41.33
2018-05-09T17:22:40.801Z,43.83
2018-05-09T17:25:09.008Z,45.10
2018-05-09T17:27:37.221Z,43.83
2018-05-09T17:30:05.438Z,45.75
2018-05-09T17:32:33.612Z,40.92
2018-05-09T17:35:01.868Z,42.10
2018-05-09T17:37:30.055Z,39.55
2018-05-09T17:39:58.357Z,39.28
2018-05-09T17:42:26.659Z,37.60
2018-05-09T17:44:54.802Z,39.63
2018-05-09T17:47:22.974Z,39.47
2018-05-09T17:49:51.237Z,33.78
2018-05-09T17:52:19.438Z,34.72
2018-05-09T17:54:47.561Z,32.38
2018-05-09T17:57:15.748Z,30.70
2018-05-09T17:59:43.955Z,32.33
2018-05-09T18:02:12.172Z,29.45
2018-05-09T18:04:40.369Z,27.67
2018-05-09T18:07:08.583Z,27.52
2018-05-09T18:09:36.788Z,26.55
2018-05-09T18:12:04.959Z,28.07
2018-05-09T18:14:33.146Z,28.63
2018-05-09T18:17:01.395Z,27.65
2018-05-09T18:19:29.583Z,29.00
2018-05-09T18:21:57.782Z,30.73
2018-05-09T18:24:25.992Z,27.60
2018-05-09T18:26:54.237Z,27.80
2018-05-09T18:29:22.339Z,30.35
2018-05-09T18:31:50.556Z,29.60
2018-05-09T18:34:18.717Z,29.23
2018-05-09T18:36:46.906Z,30.13
2018-05-09T18:39:15.140Z,29.33
2018-05-09T18:41:43.353Z,29.12
2018-05-09T18:44:11.532Z,30.88
2018-05-09T18:46:39.886Z,30.98
2018-05-09T18:49:08.109Z,32.17
2018-05-09T18:51:36.276Z,31.95
2018-05-09T18:54:04.496Z,31.27
2018-05-09T18:56:32.679Z,32.88
2018-05-09T18:59:00.852Z,32.78
2018-05-09T19:01:29.098Z,35.15
2018-05-09T19:03:57.307Z,36.05
2018-05-09T19:06:25.566Z,34.65
2018-05-09T19:08:53.720Z,34.83
2018-05-09T19:11:21.957Z,35.33
2018-05-09T19:13:50.170Z,36.40
2018-05-09T19:16:24.288Z,34.65
2018-05-09T19:18:52.444Z,34.35
2018-05-09T19:21:20.657Z,32.45
2018-05-09T19:23:48.816Z,34.15
2018-05-09T19:26:17.021Z,33.65
2018-05-09T19:28:45.254Z,35.20
2018-05-09T19:31:13.444Z,34.97
2018-05-09T19:33:41.598Z,35.10
2018-05-09T19:36:10.622Z,35.25
2018-05-09T19:38:38.870Z,37.40
2018-05-09T19:41:07.069Z,36.60
2018-05-09T19:43:35.225Z,34.72
2018-05-09T19:46:05.894Z,34.20
2018-05-09T19:48:34.075Z,43.53
2018-05-09T19:51:02.256Z,46.75
2018-05-09T19:53:30.454Z,47.15
2018-05-09T19:55:58.665Z,50.60
2018-05-09T19:58:26.871Z,50.90
2018-05-09T20:00:55.038Z,53.80
2018-05-09T20:03:23.212Z,54.70
2018-05-09T20:05:51.387Z,56.63
2018-05-09T20:08:19.573Z,54.85
2018-05-09T20:10:47.739Z,55.67
2018-05-09T20:13:15.990Z,54.42
2018-05-09T20:15:44.177Z,55.42
2018-05-09T20:18:12.359Z,56.10
2018-05-09T20:20:40.555Z,55.33
2018-05-09T20:23:08.778Z,54.95
2018-05-09T20:25:37.025Z,54.67
2018-05-09T20:28:05.245Z,52.00
2018-05-09T20:30:52.552Z,52.30
2018-05-09T20:33:20.780Z,51.07
2018-05-09T20:35:48.955Z,51.65
2018-05-09T20:38:17.157Z,53.65
2018-05-09T20:40:45.317Z,56.88
2018-05-09T20:43:13.543Z,58.53
2018-05-09T20:45:41.717Z,59.40
2018-05-09T20:48:09.874Z,59.13
2018-05-09T20:50:38.077Z,63.58
2018-05-09T20:53:06.266Z,63.30
2018-05-09T20:55:36.972Z,64.20
2018-05-09T20:58:05.194Z,67.15
2018-05-09T21:00:33.357Z,67.70
2018-05-09T21:03:01.549Z,69.32
2018-05-09T21:05:29.785Z,68.53
2018-05-09T21:07:57.990Z,69.47
2018-05-09T21:10:26.194Z,71.43
2018-05-09T21:12:54.367Z,70.20
2018-05-09T21:15:22.547Z,71.00
2018-05-09T21:17:50.715Z,73.25
2018-05-09T21:20:18.906Z,75.12
2018-05-09T21:22:47.118Z,75.82
2018-05-09T21:25:15.355Z,76.70
2018-05-09T21:27:43.526Z,80.95
2018-05-09T21:30:11.725Z,81.07
2018-05-09T21:32:39.885Z,84.28
2018-05-09T21:35:08.109Z,84.13
2018-05-09T21:37:36.323Z,86.20
2018-05-09T21:40:04.499Z,84.57
2018-05-09T21:42:32.677Z,85.55
2018-05-09T21:45:00.905Z,86.07
2018-05-09T21:47:29.087Z,85.72
2018-05-09T21:49:57.302Z,88.75
2018-05-09T21:52:25.478Z,89.43
2018-05-09T21:54:53.646Z,86.67
2018-05-09T21:57:21.833Z,86.00
2018-05-09T21:59:50.011Z,86.95
2018-05-09T22:02:18.245Z,87.55
2018-05-09T22:04:46.452Z,85.93
2018-05-09T22:07:14.706Z,84.73
2018-05-09T22:09:42.901Z,82.70
2018-05-09T22:12:11.085Z,81.43
2018-05-09T22:14:39.276Z,78.18
2018-05-09T22:17:07.534Z,76.72
2018-05-09T22:19:35.756Z,77.75
2018-05-09T22:22:03.930Z,74.85
2018-05-09T22:24:32.132Z,74.97
2018-05-09T22:27:00.408Z,72.10
2018-05-09T22:29:28.598Z,71.37
2018-05-09T22:31:56.779Z,71.03
2018-05-09T22:34:24.959Z,71.07
2018-05-09T22:36:53.134Z,69.47
2018-05-09T22:39:21.399Z,67.22
2018-05-09T22:41:49.558Z,67.07
2018-05-09T22:44:17.776Z,65.30
2018-05-09T22:46:45.963Z,66.32
2018-05-09T22:49:14.356Z,64.50
2018-05-09T22:51:42.521Z,64.70
2018-05-09T22:54:10.709Z,62.22
2018-05-09T22:56:38.879Z,63.13
2018-05-09T22:59:07.180Z,62.00
2018-05-09T23:01:35.333Z,59.35
2018-05-09T23:04:03.527Z,58.80
2018-05-09T23:06:31.695Z,59.92
2018-05-09T23:08:59.977Z,58.30
2018-05-09T23:11:28.139Z,56.80
2018-05-09T23:13:56.320Z,57.07
2018-05-09T23:16:24.500Z,56.00
2018-05-09T23:18:52.669Z,55.78
2018-05-09T23:21:20.919Z,54.15
2018-05-09T23:23:49.186Z,54.50
2018-05-09T23:26:17.301Z,53.33
2018-05-09T23:28:45.488Z,52.70
2018-05-09T23:31:13.686Z,50.97
2018-05-09T23:33:41.887Z,52.80
2018-05-09T23:36:10.049Z,51.97
2018-05-09T23:38:38.285Z,52.40
2018-05-09T23:41:06.542Z,51.67
2018-05-09T23:43:34.766Z,49.95
2018-05-09T23:46:03.121Z,51.10
2018-05-09T23:48:31.281Z,49.55
2018-05-09T23:50:59.567Z,49.72
2018-05-09T23:53:27.740Z,48.17
2018-05-09T23:55:55.999Z,46.88
2018-05-09T23:58:24.186Z,47.55
